sensor_id;sensor_type;location;lat;lon;timestamp;P1;P4;P2;P0;N10;N4;N25;N1;N05;TS
78211;SPS30;67490;52.086;5.122;2023-09-19T00:01:59;3.04;2.83;2.46;1.88;15.11;15.08;14.98;14.46;11.80;0.64
78211;SPS30;67490;52.086;5.122;2023-09-19T00:04:43;3.19;2.97;2.56;1.95;15.61;15.59;15.48;14.91;12.13;0.64
78211;SPS30;67490;52.086;5.122;2023-09-19T00:07:28;3.35;3.14;2.74;2.12;17.02;16.99;16.89;16.33;13.38;0.63
78211;SPS30;67490;52.086;5.122;2023-09-19T00:10:12;3.62;3.36;2.90;2.20;17.61;17.58;17.46;16.81;13.67;0.65
78211;SPS30;67490;52.086;5.122;2023-09-19T00:12:59;2.80;2.62;2.30;1.80;14.46;14.44;14.36;13.90;11.43;0.63
78211;SPS30;67490;52.086;5.122;2023-09-19T00:15:45;3.05;2.87;2.56;2.04;16.38;16.36;16.27;15.82;13.09;0.61
78211;SPS30;67490;52.086;5.122;2023-09-19T00:18:36;2.83;2.69;2.44;2.01;16.09;16.07;16.01;15.63;13.05;0.59
78211;SPS30;67490;52.086;5.122;2023-09-19T00:21:20;3.04;2.90;2.63;2.17;17.35;17.33;17.26;16.86;14.08;0.59
78211;SPS30;67490;52.086;5.122;2023-09-19T00:24:06;2.79;2.64;2.37;1.92;15.36;15.34;15.26;14.87;12.35;0.60
78211;SPS30;67490;52.086;5.122;2023-09-19T00:26:52;2.71;2.57;2.32;1.89;15.16;15.14;15.07;14.70;12.24;0.61
78211;SPS30;67490;52.086;5.122;2023-09-19T00:29:38;2.97;2.79;2.47;1.95;15.64;15.62;15.54;15.07;12.43;0.64
78211;SPS30;67490;52.086;5.122;2023-09-19T00:32:23;3.29;3.08;2.70;2.11;16.93;16.91;16.81;16.27;13.36;0.65
78211;SPS30;67490;52.086;5.122;2023-09-19T00:35:09;3.10;2.91;2.56;2.01;16.13;16.11;16.02;15.52;12.78;0.65
78211;SPS30;67490;52.086;5.122;2023-09-19T00:37:54;3.26;3.02;2.59;1.94;15.59;15.56;15.45;14.84;12.03;0.65
78211;SPS30;67490;52.086;5.122;2023-09-19T00:40:39;3.25;3.02;2.61;1.98;15.90;15.88;15.77;15.19;12.36;0.64
78211;SPS30;67490;52.086;5.122;2023-09-19T00:43:27;3.09;2.89;2.53;1.97;15.80;15.78;15.68;15.17;12.44;0.63
78211;SPS30;67490;52.086;5.122;2023-09-19T00:46:13;2.85;2.66;2.33;1.81;14.48;14.46;14.37;13.90;11.39;0.64
78211;SPS30;67490;52.086;5.122;2023-09-19T00:49:01;3.01;2.80;2.42;1.84;14.74;14.71;14.61;14.08;11.46;0.65
78211;SPS30;67490;52.086;5.122;2023-09-19T00:51:47;2.93;2.73;2.37;1.82;14.62;14.59;14.50;14.00;11.43;0.64
78211;SPS30;67490;52.086;5.122;2023-09-19T00:54:31;2.82;2.65;2.35;1.86;14.92;14.89;14.81;14.37;11.86;0.62
78211;SPS30;67490;52.086;5.122;2023-09-19T00:57:19;3.18;2.97;2.59;2.00;16.04;16.01;15.91;15.37;12.58;0.64
78211;SPS30;67490;52.086;5.122;2023-09-19T01:00:07;3.33;3.09;2.65;1.98;15.87;15.85;15.73;15.11;12.23;0.66
78211;SPS30;67490;52.086;5.122;2023-09-19T01:02:56;3.36;3.11;2.64;1.95;15.67;15.64;15.52;14.87;11.99;0.66
78211;SPS30;67490;52.086;5.122;2023-09-19T01:05:40;3.22;3.00;2.59;1.97;15.79;15.76;15.66;15.08;12.27;0.65
78211;SPS30;67490;52.086;5.122;2023-09-19T01:08:27;3.15;2.95;2.59;2.02;16.16;16.14;16.04;15.53;12.75;0.63
78211;SPS30;67490;52.086;5.122;2023-09-19T01:11:14;3.34;3.10;2.68;2.02;16.24;16.21;16.10;15.50;12.59;0.65
78211;SPS30;67490;52.086;5.122;2023-09-19T01:14:14;3.41;3.14;2.66;1.95;15.62;15.59;15.46;14.79;11.88;0.67
78211;SPS30;67490;52.086;5.122;2023-09-19T01:17:09;3.24;3.01;2.59;1.95;15.65;15.62;15.51;14.93;12.12;0.65
78211;SPS30;67490;52.086;5.122;2023-09-19T01:20:11;3.06;2.85;2.48;1.90;15.21;15.19;15.09;14.56;11.88;0.66
78211;SPS30;67490;52.086;5.122;2023-09-19T01:23:11;3.35;3.13;2.71;2.07;16.62;16.60;16.49;15.90;12.97;0.65
78211;SPS30;67490;52.086;5.122;2023-09-19T01:26:14;3.57;3.32;2.86;2.17;17.41;17.38;17.26;16.62;13.51;0.66
78211;SPS30;67490;52.086;5.122;2023-09-19T01:29:15;3.55;3.29;2.83;2.13;17.13;17.10;16.98;16.33;13.25;0.67
78211;SPS30;67490;52.086;5.122;2023-09-19T01:32:16;3.22;2.98;2.55;1.89;15.19;15.16;15.05;14.43;11.66;0.68
78211;SPS30;67490;52.086;5.122;2023-09-19T01:35:05;3.32;3.10;2.70;2.07;16.58;16.55;16.45;15.87;12.96;0.66
78211;SPS30;67490;52.086;5.122;2023-09-19T01:37:50;3.16;2.97;2.62;2.07;16.57;16.54;16.45;15.95;13.14;0.65
78211;SPS30;67490;52.086;5.122;2023-09-19T01:40:34;2.81;2.66;2.38;1.91;15.32;15.30;15.23;14.82;12.29;0.62
78211;SPS30;67490;52.086;5.122;2023-09-19T01:43:27;3.05;2.89;2.60;2.12;16.97;16.95;16.88;16.45;13.69;0.63
78211;SPS30;67490;52.086;5.122;2023-09-19T01:46:18;3.25;3.06;2.71;2.15;17.26;17.23;17.14;16.64;13.74;0.65
78211;SPS30;67490;52.086;5.122;2023-09-19T01:49:13;3.62;3.36;2.90;2.19;17.60;17.57;17.45;16.80;13.65;0.67
78211;SPS30;67490;52.086;5.122;2023-09-19T01:52:09;3.36;3.14;2.73;2.10;16.83;16.81;16.70;16.12;13.17;0.65
78211;SPS30;67490;52.086;5.122;2023-09-19T01:55:05;3.46;3.23;2.82;2.17;17.43;17.40;17.29;16.70;13.66;0.66
78211;SPS30;67490;52.086;5.122;2023-09-19T01:57:54;3.08;2.91;2.60;2.09;16.76;16.74;16.66;16.21;13.44;0.64
78211;SPS30;67490;52.086;5.122;2023-09-19T02:00:45;3.15;2.96;2.60;2.03;16.25;16.22;16.13;15.61;12.82;0.68
78211;SPS30;67490;52.086;5.122;2023-09-19T02:03:36;3.42;3.18;2.76;2.11;16.89;16.87;16.75;16.15;13.17;0.67
78211;SPS30;67490;52.086;5.122;2023-09-19T02:06:25;3.43;3.17;2.71;2.00;16.09;16.06;15.93;15.28;12.33;0.69
78211;SPS30;67490;52.086;5.122;2023-09-19T02:09:10;4.12;3.78;3.15;2.24;18.01;17.97;17.81;16.95;13.47;0.71
78211;SPS30;67490;52.086;5.122;2023-09-19T02:11:55;4.69;4.30;3.59;2.56;20.57;20.53;20.35;19.37;15.40;0.69
78211;SPS30;67490;52.086;5.122;2023-09-19T02:14:40;3.78;3.48;2.95;2.15;17.30;17.27;17.13;16.38;13.15;0.68
78211;SPS30;67490;52.086;5.122;2023-09-19T02:17:24;4.38;4.03;3.40;2.47;19.86;19.82;19.66;18.78;15.05;0.69
78211;SPS30;67490;52.086;5.122;2023-09-19T02:20:12;3.96;3.64;3.07;2.23;17.92;17.88;17.73;16.94;13.57;0.69
78211;SPS30;67490;52.086;5.122;2023-09-19T02:23:02;4.04;3.72;3.15;2.29;18.41;18.37;18.22;17.42;13.97;0.68
78211;SPS30;67490;52.086;5.122;2023-09-19T02:25:51;4.30;3.95;3.31;2.37;19.02;18.98;18.81;17.92;14.29;0.70
78211;SPS30;67490;52.086;5.122;2023-09-19T02:28:36;4.36;4.00;3.35;2.40;19.30;19.25;19.09;18.19;14.50;0.68
78211;SPS30;67490;52.086;5.122;2023-09-19T02:31:20;4.27;3.93;3.33;2.43;19.48;19.44;19.28;18.44;14.79;0.68
78211;SPS30;67490;52.086;5.122;2023-09-19T02:34:04;5.32;4.85;3.97;2.73;21.93;21.87;21.65;20.45;16.03;0.73
78211;SPS30;67490;52.086;5.122;2023-09-19T02:36:50;5.35;4.86;3.96;2.69;21.63;21.57;21.34;20.12;15.70;0.74
78211;SPS30;67490;52.086;5.122;2023-09-19T02:39:38;5.43;4.90;3.93;2.57;20.74;20.68;20.43;19.11;14.69;0.78
78211;SPS30;67490;52.086;5.122;2023-09-19T02:42:23;5.69;5.11;4.06;2.60;20.95;20.89;20.62;19.20;14.60;0.81
78211;SPS30;67490;52.086;5.122;2023-09-19T02:45:08;5.57;5.01;4.01;2.60;20.96;20.90;20.64;19.27;14.75;0.79
78211;SPS30;67490;52.086;5.122;2023-09-19T02:47:53;5.37;4.87;3.95;2.65;21.35;21.30;21.06;19.81;15.39;0.75
78211;SPS30;67490;52.086;5.122;2023-09-19T02:50:39;5.48;4.94;3.95;2.57;20.68;20.62;20.37;19.02;14.57;0.76
78211;SPS30;67490;52.086;5.122;2023-09-19T02:53:24;5.71;5.12;4.06;2.57;20.72;20.66;20.39;18.93;14.34;0.79
78211;SPS30;67490;52.086;5.122;2023-09-19T02:56:10;5.81;5.25;4.24;2.81;22.59;22.53;22.27;20.88;16.13;0.76
78211;SPS30;67490;52.086;5.122;2023-09-19T02:58:57;5.59;5.01;3.96;2.50;20.15;20.09;19.82;18.39;13.90;0.80
78211;SPS30;67490;52.086;5.122;2023-09-19T03:01:42;6.08;5.47;4.37;2.83;22.83;22.76;22.48;20.98;16.05;0.77
78211;SPS30;67490;52.086;5.122;2023-09-19T03:04:27;5.85;5.29;4.27;2.84;22.83;22.76;22.50;21.11;16.33;0.74
78211;SPS30;67490;52.086;5.122;2023-09-19T03:07:12;5.15;4.68;3.82;2.59;20.87;20.81;20.59;19.42;15.16;0.72
78211;SPS30;67490;52.086;5.122;2023-09-19T03:09:57;5.78;5.26;4.32;2.96;23.83;23.77;23.53;22.23;17.43;0.74
78211;SPS30;67490;52.086;5.122;2023-09-19T03:12:42;5.19;4.73;3.88;2.66;21.43;21.38;21.16;20.00;15.68;0.74
78211;SPS30;67490;52.086;5.122;2023-09-19T03:15:27;6.53;5.88;4.71;3.06;24.63;24.56;24.26;22.65;17.35;0.76
78211;SPS30;67490;52.086;5.122;2023-09-19T03:18:11;5.67;5.11;4.08;2.65;21.33;21.27;21.00;19.61;15.01;0.75
78211;SPS30;67490;52.086;5.122;2023-09-19T03:20:57;6.16;5.58;4.52;3.03;24.35;24.28;24.01;22.56;17.51;0.74
78211;SPS30;67490;52.086;5.122;2023-09-19T03:23:43;5.54;5.01;4.06;2.70;21.73;21.67;21.42;20.11;15.57;0.75
78211;SPS30;67490;52.086;5.122;2023-09-19T03:26:30;5.34;4.86;3.98;2.73;21.92;21.87;21.64;20.44;16.01;0.73
78211;SPS30;67490;52.086;5.122;2023-09-19T03:29:16;5.68;5.17;4.22;2.87;23.12;23.06;22.81;21.52;16.82;0.74
78211;SPS30;67490;52.086;5.122;2023-09-19T03:32:00;5.73;5.21;4.26;2.91;23.42;23.36;23.11;21.82;17.07;0.74
78211;SPS30;67490;52.086;5.122;2023-09-19T03:34:45;6.35;5.75;4.67;3.13;25.18;25.11;24.83;23.35;18.13;0.75
78211;SPS30;67490;52.086;5.122;2023-09-19T03:37:32;5.78;5.25;4.26;2.87;23.09;23.03;22.78;21.43;16.67;0.75
78211;SPS30;67490;52.086;5.122;2023-09-19T03:40:17;5.99;5.44;4.43;2.99;24.10;24.03;23.78;22.39;17.45;0.72
78211;SPS30;67490;52.086;5.122;2023-09-19T03:43:04;5.35;4.89;4.05;2.83;22.77;22.72;22.50;21.34;16.86;0.71
78211;SPS30;67490;52.086;5.122;2023-09-19T03:45:50;4.74;4.35;3.65;2.62;21.05;21.00;20.82;19.85;15.83;0.70
78211;SPS30;67490;52.086;5.122;2023-09-19T03:48:34;5.10;4.62;3.75;2.52;20.27;20.22;20.00;18.81;14.61;0.75
78211;SPS30;67490;52.086;5.122;2023-09-19T03:51:19;6.10;5.50;4.41;2.88;23.19;23.12;22.84;21.35;16.39;0.75
78211;SPS30;67490;52.086;5.122;2023-09-19T03:54:03;5.54;5.05;4.15;2.87;23.05;22.99;22.76;21.53;16.92;0.72
78211;SPS30;67490;52.086;5.122;2023-09-19T03:56:48;5.56;5.05;4.13;2.81;22.63;22.57;22.33;21.07;16.46;0.74
78211;SPS30;67490;52.086;5.122;2023-09-19T03:59:32;5.23;4.76;3.90;2.66;21.44;21.38;21.16;19.98;15.64;0.72
78211;SPS30;67490;52.086;5.122;2023-09-19T04:02:17;4.96;4.53;3.74;2.60;20.93;20.88;20.67;19.59;15.44;0.70
78211;SPS30;67490;52.086;5.122;2023-09-19T04:05:08;5.50;4.99;4.06;2.74;22.07;22.01;21.78;20.51;15.97;0.72
78211;SPS30;67490;52.086;5.122;2023-09-19T04:07:53;5.64;5.11;4.14;2.76;22.21;22.15;21.91;20.58;15.95;0.72
78211;SPS30;67490;52.086;5.122;2023-09-19T04:10:38;5.17;4.69;3.82;2.58;20.76;20.70;20.48;19.28;15.01;0.74
78211;SPS30;67490;52.086;5.122;2023-09-19T04:13:22;5.62;5.09;4.12;2.74;22.07;22.01;21.76;20.43;15.82;0.75
78211;SPS30;67490;52.086;5.122;2023-09-19T04:16:06;5.54;5.00;4.02;2.63;21.19;21.13;20.88;19.54;15.02;0.78
78211;SPS30;67490;52.086;5.122;2023-09-19T04:18:52;6.03;5.39;4.22;2.60;20.96;20.89;20.59;19.01;14.20;0.82
78211;SPS30;67490;52.086;5.122;2023-09-19T04:21:37;6.34;5.69;4.50;2.85;22.98;22.91;22.61;21.00;15.90;0.79
78211;SPS30;67490;52.086;5.122;2023-09-19T04:24:21;4.91;4.45;3.62;2.45;19.68;19.63;19.42;18.28;14.23;0.74
78211;SPS30;67490;52.086;5.122;2023-09-19T04:27:06;6.12;5.52;4.42;2.88;23.19;23.12;22.84;21.34;16.37;0.77
78211;SPS30;67490;52.086;5.122;2023-09-19T04:29:51;5.89;5.29;4.18;2.65;21.32;21.25;20.97;19.47;14.73;0.77
78211;SPS30;67490;52.086;5.122;2023-09-19T04:32:37;6.13;5.53;4.45;2.93;23.56;23.49;23.22;21.74;16.74;0.75
78211;SPS30;67490;52.086;5.122;2023-09-19T04:35:26;5.52;5.00;4.07;2.73;22.01;21.95;21.71;20.43;15.88;0.73
78211;SPS30;67490;52.086;5.122;2023-09-19T04:38:13;5.42;4.90;3.97;2.65;21.31;21.26;21.02;19.74;15.29;0.73
78211;SPS30;67490;52.086;5.122;2023-09-19T04:40:58;5.26;4.78;3.90;2.64;21.28;21.22;21.00;19.79;15.44;0.73
78211;SPS30;67490;52.086;5.122;2023-09-19T04:43:43;5.48;4.97;4.05;2.74;22.02;21.96;21.72;20.46;15.94;0.75
78211;SPS30;67490;52.086;5.122;2023-09-19T04:46:27;5.29;4.80;3.90;2.62;21.07;21.01;20.78;19.55;15.19;0.74
78211;SPS30;67490;52.086;5.122;2023-09-19T04:49:11;5.30;4.86;4.04;2.86;22.96;22.91;22.70;21.57;17.11;0.72
78211;SPS30;67490;52.086;5.122;2023-09-19T04:51:57;5.66;5.14;4.19;2.85;22.90;22.84;22.60;21.30;16.62;0.74
78211;SPS30;67490;52.086;5.122;2023-09-19T04:54:42;5.79;5.27;4.32;2.96;23.83;23.77;23.53;22.22;17.42;0.73
78211;SPS30;67490;52.086;5.122;2023-09-19T04:57:26;5.65;5.15;4.25;2.95;23.68;23.63;23.39;22.15;17.44;0.72
78211;SPS30;67490;52.086;5.122;2023-09-19T05:00:12;4.91;4.49;3.72;2.61;21.01;20.96;20.76;19.70;15.58;0.72
78211;SPS30;67490;52.086;5.122;2023-09-19T05:02:58;5.72;5.18;4.18;2.77;22.33;22.27;22.01;20.65;15.96;0.75
78211;SPS30;67490;52.086;5.122;2023-09-19T05:05:43;5.75;5.21;4.23;2.83;22.80;22.74;22.49;21.14;16.42;0.75
78211;SPS30;67490;52.086;5.122;2023-09-19T05:08:29;5.83;5.25;4.19;2.71;21.85;21.79;21.52;20.07;15.35;0.79
78211;SPS30;67490;52.086;5.122;2023-09-19T05:11:17;5.77;5.19;4.15;2.69;21.63;21.57;21.30;19.88;15.20;0.79
78211;SPS30;67490;52.086;5.122;2023-09-19T05:14:01;6.46;5.83;4.68;3.05;24.58;24.51;24.21;22.64;17.38;0.78
78211;SPS30;67490;52.086;5.122;2023-09-19T05:16:47;5.53;5.00;4.03;2.66;21.41;21.35;21.10;19.77;15.25;0.76
78211;SPS30;67490;52.086;5.122;2023-09-19T05:19:32;5.99;5.40;4.34;2.84;22.89;22.82;22.55;21.10;16.22;0.77
78211;SPS30;67490;52.086;5.122;2023-09-19T05:22:16;5.87;5.34;4.36;2.97;23.86;23.80;23.55;22.21;17.35;0.75
78211;SPS30;67490;52.086;5.122;2023-09-19T05:25:04;5.24;4.78;3.95;2.74;22.04;21.99;21.78;20.62;16.25;0.73
78211;SPS30;67490;52.086;5.122;2023-09-19T05:27:49;5.24;4.81;4.03;2.88;23.14;23.09;22.89;21.81;17.37;0.70
78211;SPS30;67490;52.086;5.122;2023-09-19T05:30:35;4.82;4.43;3.74;2.71;21.75;21.70;21.52;20.55;16.45;0.70
78211;SPS30;67490;52.086;5.122;2023-09-19T05:33:19;4.53;4.18;3.54;2.58;20.75;20.70;20.54;19.64;15.77;0.69
78211;SPS30;67490;52.086;5.122;2023-09-19T05:36:04;5.60;5.15;4.31;3.09;24.83;24.77;24.56;23.40;18.66;0.70
78211;SPS30;67490;52.086;5.122;2023-09-19T05:38:48;4.85;4.45;3.73;2.67;21.44;21.39;21.21;20.21;16.11;0.69
78211;SPS30;67490;52.086;5.122;2023-09-19T05:41:35;5.45;5.00;4.19;2.99;24.04;23.98;23.77;22.64;18.03;0.69
78211;SPS30;67490;52.086;5.122;2023-09-19T05:44:20;5.45;5.02;4.25;3.10;24.88;24.83;24.63;23.55;18.90;0.68
78211;SPS30;67490;52.086;5.122;2023-09-19T05:47:04;5.11;4.71;3.99;2.92;23.44;23.39;23.20;22.20;17.83;0.68
78211;SPS30;67490;52.086;5.122;2023-09-19T05:49:48;5.46;5.02;4.23;3.06;24.59;24.54;24.34;23.24;18.60;0.70
78211;SPS30;67490;52.086;5.122;2023-09-19T05:52:34;5.96;5.45;4.52;3.17;25.45;25.39;25.15;23.86;18.86;0.71
78211;SPS30;67490;52.086;5.122;2023-09-19T05:55:18;6.72;6.10;4.96;3.35;26.93;26.85;26.56;25.01;19.46;0.75
78211;SPS30;67490;52.086;5.122;2023-09-19T05:58:05;6.40;5.80;4.71;3.15;25.39;25.32;25.04;23.54;18.27;0.75
78211;SPS30;67490;52.086;5.122;2023-09-19T06:00:49;6.23;5.65;4.60;3.10;24.98;24.91;24.64;23.20;18.06;0.74
78211;SPS30;67490;52.086;5.122;2023-09-19T06:03:34;6.10;5.57;4.60;3.20;25.74;25.68;25.43;24.10;19.00;0.71
78211;SPS30;67490;52.086;5.122;2023-09-19T06:06:19;5.33;4.88;4.08;2.90;23.27;23.22;23.01;21.89;17.40;0.70
78211;SPS30;67490;52.086;5.122;2023-09-19T06:09:03;5.94;5.45;4.55;3.24;26.00;25.94;25.71;24.46;19.45;0.70
78211;SPS30;67490;52.086;5.122;2023-09-19T06:11:49;5.65;5.17;4.31;3.05;24.49;24.43;24.21;23.01;18.26;0.70
78211;SPS30;67490;52.086;5.122;2023-09-19T06:14:35;6.36;5.77;4.72;3.20;25.77;25.70;25.43;23.98;18.72;0.72
78211;SPS30;67490;52.086;5.122;2023-09-19T06:17:20;6.67;6.01;4.81;3.13;25.23;25.15;24.85;23.21;17.79;0.76
78211;SPS30;67490;52.086;5.122;2023-09-19T06:20:07;7.32;6.53;5.10;3.12;25.18;25.09;24.73;22.78;16.97;0.81
78211;SPS30;67490;52.086;5.122;2023-09-19T06:22:58;6.64;5.97;4.74;3.02;24.34;24.26;23.95;22.27;16.91;0.79
78211;SPS30;67490;52.086;5.122;2023-09-19T06:25:42;6.38;5.81;4.77;3.27;26.31;26.24;25.98;24.54;19.24;0.73
78211;SPS30;67490;52.086;5.122;2023-09-19T06:28:27;6.19;5.62;4.60;3.14;25.30;25.23;24.97;23.57;18.44;0.72
78211;SPS30;67490;52.086;5.122;2023-09-19T06:31:13;6.19;5.64;4.63;3.18;25.60;25.54;25.28;23.89;18.75;0.72
78211;SPS30;67490;52.086;5.122;2023-09-19T06:33:57;6.41;5.80;4.68;3.11;25.03;24.96;24.67;23.15;17.90;0.75
78211;SPS30;67490;52.086;5.122;2023-09-19T06:36:42;6.27;5.67;4.56;3.01;24.23;24.16;23.88;22.37;17.25;0.75
78211;SPS30;67490;52.086;5.122;2023-09-19T06:39:27;5.79;5.26;4.30;2.93;23.54;23.48;23.23;21.91;17.11;0.74
78211;SPS30;67490;52.086;5.122;2023-09-19T06:42:11;5.84;5.31;4.36;2.99;24.06;24.00;23.75;22.44;17.59;0.74
78211;SPS30;67490;52.086;5.122;2023-09-19T06:44:56;5.69;5.18;4.25;2.92;23.46;23.40;23.16;21.88;17.15;0.72
78211;SPS30;67490;52.086;5.122;2023-09-19T06:47:42;5.97;5.44;4.46;3.07;24.68;24.62;24.37;23.03;18.07;0.71
78211;SPS30;67490;52.086;5.122;2023-09-19T06:50:27;6.43;5.83;4.75;3.20;25.78;25.72;25.44;23.95;18.65;0.72
78211;SPS30;67490;52.086;5.122;2023-09-19T06:53:11;6.20;5.61;4.52;2.99;24.10;24.03;23.76;22.28;17.20;0.72
78211;SPS30;67490;52.086;5.122;2023-09-19T06:55:56;6.69;6.02;4.82;3.13;25.18;25.10;24.79;23.15;17.72;0.73
78211;SPS30;67490;52.086;5.122;2023-09-19T06:58:40;6.31;5.68;4.54;2.93;23.62;23.55;23.26;21.69;16.58;0.74
78211;SPS30;67490;52.086;5.122;2023-09-19T07:01:27;6.86;6.18;4.95;3.22;25.96;25.88;25.57;23.89;18.32;0.75
78211;SPS30;67490;52.086;5.122;2023-09-19T07:04:13;6.48;5.86;4.73;3.13;25.21;25.14;24.85;23.30;18.00;0.76
78211;SPS30;67490;52.086;5.122;2023-09-19T07:06:57;7.01;6.34;5.12;3.39;27.33;27.25;26.94;25.27;19.53;0.76
78211;SPS30;67490;52.086;5.122;2023-09-19T07:09:41;6.13;5.55;4.51;3.03;24.38;24.31;24.05;22.62;17.58;0.76
78211;SPS30;67490;52.086;5.122;2023-09-19T07:12:25;6.88;6.20;4.98;3.25;26.21;26.13;25.82;24.14;18.55;0.77
78211;SPS30;67490;52.086;5.122;2023-09-19T07:15:10;6.94;6.25;5.01;3.26;26.28;26.20;25.88;24.18;18.54;0.78
78211;SPS30;67490;52.086;5.122;2023-09-19T07:17:54;6.73;6.03;4.76;2.99;24.11;24.03;23.70;21.97;16.57;0.81
78211;SPS30;67490;52.086;5.122;2023-09-19T07:20:41;6.48;5.82;4.62;2.95;23.75;23.67;23.37;21.74;16.51;0.79
78211;SPS30;67490;52.086;5.122;2023-09-19T07:23:32;7.48;6.69;5.24;3.24;26.16;26.07;25.70;23.74;17.78;0.79
78211;SPS30;67490;52.086;5.122;2023-09-19T07:26:19;7.37;6.57;5.12;3.12;25.17;25.08;24.71;22.74;16.89;0.81
78211;SPS30;67490;52.086;5.122;2023-09-19T07:29:03;7.57;6.73;5.20;3.11;25.13;25.03;24.65;22.58;16.62;0.82
78211;SPS30;67490;52.086;5.122;2023-09-19T07:31:50;6.73;6.03;4.75;2.97;23.99;23.91;23.58;21.84;16.45;0.76
78211;SPS30;67490;52.086;5.122;2023-09-19T07:34:35;6.60;5.96;4.79;3.15;25.39;25.32;25.02;23.43;18.05;0.76
78211;SPS30;67490;52.086;5.122;2023-09-19T07:37:21;6.89;6.18;4.89;3.09;24.88;24.80;24.47;22.71;17.17;0.77
78211;SPS30;67490;52.086;5.122;2023-09-19T07:40:06;7.96;7.11;5.58;3.46;27.91;27.81;27.42;25.34;18.99;0.78
78211;SPS30;67490;52.086;5.122;2023-09-19T07:42:54;6.88;6.21;5.00;3.30;26.54;26.47;26.16;24.51;18.89;0.74
78211;SPS30;67490;52.086;5.122;2023-09-19T07:45:38;6.89;6.22;5.01;3.30;26.53;26.46;26.15;24.48;18.86;0.73
78211;SPS30;67490;52.086;5.122;2023-09-19T07:48:23;6.59;5.94;4.76;3.10;24.98;24.91;24.60;22.99;17.63;0.76
78211;SPS30;67490;52.086;5.122;2023-09-19T07:51:08;7.62;6.86;5.48;3.55;28.62;28.54;28.19;26.31;20.13;0.76
78211;SPS30;67490;52.086;5.122;2023-09-19T07:53:54;7.43;6.67;5.29;3.36;27.07;26.99;26.63;24.75;18.77;0.78
78211;SPS30;67490;52.086;5.122;2023-09-19T07:56:38;7.76;6.96;5.49;3.46;27.89;27.80;27.42;25.43;19.20;0.79
78211;SPS30;67490;52.086;5.122;2023-09-19T07:59:23;7.34;6.57;5.15;3.20;25.79;25.70;25.34;23.42;17.56;0.81
78211;SPS30;67490;52.086;5.122;2023-09-19T08:02:08;7.08;6.37;5.07;3.26;26.23;26.15;25.82;24.05;18.32;0.77
78211;SPS30;67490;52.086;5.122;2023-09-19T08:04:59;6.37;5.77;4.67;3.13;25.16;25.09;24.81;23.31;18.08;0.74
78211;SPS30;67490;52.086;5.122;2023-09-19T08:07:45;7.12;6.46;5.27;3.57;28.72;28.65;28.34;26.70;20.83;0.74
78211;SPS30;67490;52.086;5.122;2023-09-19T08:10:34;7.35;6.64;5.36;3.55;28.61;28.53;28.20;26.45;20.44;0.76
78211;SPS30;67490;52.086;5.122;2023-09-19T08:13:19;7.14;6.46;5.22;3.48;27.98;27.90;27.59;25.90;20.05;0.76
78211;SPS30;67490;52.086;5.122;2023-09-19T08:16:05;7.39;6.63;5.25;3.33;26.85;26.76;26.41;24.53;18.59;0.80
78211;SPS30;67490;52.086;5.122;2023-09-19T08:18:49;7.63;6.84;5.40;3.40;27.42;27.33;26.96;25.01;18.88;0.81
78211;SPS30;67490;52.086;5.122;2023-09-19T08:21:36;7.61;6.85;5.47;3.54;28.54;28.45;28.10;26.22;20.06;0.78
78211;SPS30;67490;52.086;5.122;2023-09-19T08:24:21;7.51;6.70;5.22;3.19;25.74;25.65;25.27;23.27;17.31;0.80
78211;SPS30;67490;52.086;5.122;2023-09-19T08:27:06;8.64;7.72;6.05;3.74;30.14;30.03;29.61;27.34;20.45;0.80
78211;SPS30;67490;52.086;5.122;2023-09-19T08:29:53;7.19;6.44;5.07;3.17;25.55;25.47;25.12;23.26;17.50;0.80
78211;SPS30;67490;52.086;5.122;2023-09-19T08:32:37;7.47;6.69;5.26;3.29;26.55;26.46;26.10;24.16;18.18;0.79
78211;SPS30;67490;52.086;5.122;2023-09-19T08:35:23;7.64;6.86;5.43;3.45;27.81;27.72;27.36;25.42;19.27;0.76
78211;SPS30;67490;52.086;5.122;2023-09-19T08:38:07;7.27;6.55;5.24;3.40;27.41;27.33;26.99;25.21;19.30;0.75
78211;SPS30;67490;52.086;5.122;2023-09-19T08:40:52;7.37;6.65;5.35;3.51;28.23;28.15;27.82;26.03;20.02;0.73
78211;SPS30;67490;52.086;5.122;2023-09-19T08:43:38;7.80;7.02;5.60;3.61;29.09;29.01;28.64;26.70;20.39;0.75
78211;SPS30;67490;52.086;5.122;2023-09-19T08:46:23;7.52;6.75;5.34;3.39;27.34;27.26;26.90;24.99;18.94;0.76
78211;SPS30;67490;52.086;5.122;2023-09-19T08:49:18;6.95;6.27;5.02;3.27;26.37;26.29;25.97;24.27;18.62;0.76
78211;SPS30;67490;52.086;5.122;2023-09-19T08:52:19;7.29;6.53;5.15;3.23;26.08;25.99;25.64;23.77;17.92;0.79
78211;SPS30;67490;52.086;5.122;2023-09-19T08:55:06;6.94;6.22;4.91;3.09;24.92;24.84;24.50;22.72;17.15;0.78
78211;SPS30;67490;52.086;5.122;2023-09-19T08:57:59;6.79;6.11;4.87;3.14;25.27;25.20;24.88;23.19;17.70;0.77
78211;SPS30;67490;52.086;5.122;2023-09-19T09:00:47;7.44;6.67;5.27;3.32;26.77;26.68;26.33;24.42;18.45;0.78
78211;SPS30;67490;52.086;5.122;2023-09-19T09:03:34;6.69;6.03;4.83;3.15;25.35;25.27;24.96;23.33;17.89;0.75
78211;SPS30;67490;52.086;5.122;2023-09-19T09:06:21;6.47;5.82;4.64;2.99;24.12;24.04;23.74;22.14;16.90;0.76
78211;SPS30;67490;52.086;5.122;2023-09-19T09:09:07;7.12;6.36;4.97;3.04;24.56;24.47;24.12;22.23;16.57;0.79
78211;SPS30;67490;52.086;5.122;2023-09-19T09:11:53;7.53;6.73;5.28;3.28;26.44;26.35;25.98;24.01;18.00;0.80
78211;SPS30;67490;52.086;5.122;2023-09-19T09:14:40;7.66;6.82;5.30;3.20;25.85;25.75;25.37;23.30;17.24;0.81
78211;SPS30;67490;52.086;5.122;2023-09-19T09:17:30;7.50;6.69;5.22;3.19;25.74;25.65;25.27;23.28;17.32;0.81
78211;SPS30;67490;52.086;5.122;2023-09-19T09:20:16;7.41;6.60;5.13;3.10;25.06;24.97;24.59;22.60;16.74;0.83
78211;SPS30;67490;52.086;5.122;2023-09-19T09:23:00;7.13;6.35;4.93;2.99;24.10;24.01;23.65;21.74;16.10;0.82
78211;SPS30;67490;52.086;5.122;2023-09-19T09:25:48;7.64;6.79;5.25;3.13;25.29;25.20;24.81;22.72;16.70;0.83
78211;SPS30;67490;52.086;5.122;2023-09-19T09:28:44;7.69;6.85;5.32;3.21;25.92;25.82;25.44;23.36;17.28;0.83
78211;SPS30;67490;52.086;5.122;2023-09-19T09:31:29;8.14;7.22;5.55;3.27;26.38;26.28;25.86;23.60;17.22;0.84
78211;SPS30;67490;52.086;5.122;2023-09-19T09:34:15;8.18;7.27;5.60;3.33;26.86;26.76;26.34;24.09;17.65;0.82
78211;SPS30;67490;52.086;5.122;2023-09-19T09:37:00;7.97;7.07;5.44;3.21;25.89;25.79;25.38;23.17;16.92;0.81
78211;SPS30;67490;52.086;5.122;2023-09-19T09:39:51;7.42;6.59;5.08;3.01;24.34;24.25;23.87;21.82;15.99;0.83
78211;SPS30;67490;52.086;5.122;2023-09-19T09:42:38;8.13;7.18;5.46;3.13;25.32;25.21;24.78;22.46;16.15;0.84
78211;SPS30;67490;52.086;5.122;2023-09-19T09:45:23;8.63;7.62;5.78;3.29;26.62;26.50;26.04;23.56;16.87;0.84
78211;SPS30;67490;52.086;5.122;2023-09-19T09:48:17;9.58;8.41;6.28;3.42;27.68;27.55;27.01;24.15;16.82;0.88
78211;SPS30;67490;52.086;5.122;2023-09-19T09:51:17;8.88;7.81;5.86;3.23;26.16;26.04;25.55;22.93;16.11;0.86
78211;SPS30;67490;52.086;5.122;2023-09-19T09:54:14;9.03;7.90;5.85;3.10;25.14;25.01;24.49;21.74;14.88;0.88
78211;SPS30;67490;52.086;5.122;2023-09-19T09:57:00;7.88;6.94;5.22;2.90;23.47;23.36;22.93;20.62;14.55;0.84
78211;SPS30;67490;52.086;5.122;2023-09-19T09:59:58;8.39;7.42;5.65;3.25;26.27;26.16;25.72;23.33;16.80;0.83
78211;SPS30;67490;52.086;5.122;2023-09-19T10:03:04;7.28;6.50;5.06;3.09;24.94;24.86;24.49;22.55;16.77;0.81
78211;SPS30;67490;52.086;5.122;2023-09-19T10:06:07;7.16;6.48;5.24;3.50;28.15;28.07;27.76;26.07;20.20;0.75
78211;SPS30;67490;52.086;5.122;2023-09-19T10:09:11;6.69;6.06;4.93;3.32;26.73;26.66;26.37;24.81;19.31;0.74
78211;SPS30;67490;52.086;5.122;2023-09-19T10:12:00;6.26;5.67;4.60;3.09;24.83;24.76;24.49;23.03;17.88;0.73
78211;SPS30;67490;52.086;5.122;2023-09-19T10:14:49;6.18;5.61;4.57;3.08;24.82;24.76;24.49;23.06;17.96;0.72
78211;SPS30;67490;52.086;5.122;2023-09-19T10:17:35;6.73;6.10;4.95;3.33;26.79;26.72;26.43;24.86;19.32;0.74
78211;SPS30;67490;52.086;5.122;2023-09-19T10:20:20;6.02;5.46;4.45;3.01;24.19;24.12;23.86;22.47;17.51;0.74
78211;SPS30;67490;52.086;5.122;2023-09-19T10:23:26;6.25;5.66;4.60;3.09;24.88;24.81;24.54;23.08;17.94;0.72
78211;SPS30;67490;52.086;5.122;2023-09-19T10:26:19;6.08;5.50;4.44;2.94;23.67;23.60;23.33;21.88;16.90;0.72